createdAt,value
2022-08-23T00:00:43.842Z,3.20
2022-08-23T00:03:11.755Z,3.22
2022-08-23T00:05:39.808Z,3.17
2022-08-23T00:08:07.527Z,3.47
2022-08-23T00:10:34.953Z,3.90
2022-08-23T00:13:02.335Z,3.22
2022-08-23T00:15:29.680Z,3.72
2022-08-23T00:17:57.011Z,3.47
2022-08-23T00:20:24.322Z,3.63
2022-08-23T00:22:51.674Z,3.47
2022-08-23T00:25:19.144Z,3.53
2022-08-23T00:27:46.475Z,3.13
2022-08-23T00:30:15.792Z,3.25
2022-08-23T00:32:44.143Z,4.03
2022-08-23T00:35:17.630Z,4.10
2022-08-23T00:38:33.298Z,4.00
2022-08-23T00:40:51.412Z,3.58
2022-08-23T00:43:45.701Z,5.38
2022-08-23T00:46:47.311Z,4.28
2022-08-23T00:49:17.390Z,4.75
2022-08-23T00:51:57.810Z,4.07
2022-08-23T00:54:27.189Z,4.15
2022-08-23T00:56:57.727Z,3.70
2022-08-23T00:59:25.605Z,3.55
2022-08-23T01:01:53.379Z,3.60
2022-08-23T01:04:20.982Z,3.67
2022-08-23T01:07:04.414Z,3.45
2022-08-23T01:09:32.289Z,4.22
2022-08-23T01:12:16.281Z,3.40
2022-08-23T01:15:26.160Z,3.72
2022-08-23T01:18:07.001Z,3.67
2022-08-23T01:20:55.725Z,4.35
2022-08-23T01:23:41.353Z,4.07
2022-08-23T01:26:10.743Z,4.10
2022-08-23T01:28:40.770Z,3.72
2022-08-23T01:31:12.395Z,3.75
2022-08-23T01:33:41.719Z,4.03
2022-08-23T01:36:12.514Z,3.38
2022-08-23T01:38:39.898Z,4.13
2022-08-23T01:41:07.761Z,3.55
2022-08-23T01:43:35.525Z,3.75
2022-08-23T01:46:24.925Z,4.40
2022-08-23T01:48:54.689Z,4.05
2022-08-23T01:51:24.664Z,4.07
2022-08-23T01:53:52.474Z,3.53
2022-08-23T01:56:38.371Z,3.90
2022-08-23T01:59:10.641Z,4.13
2022-08-23T02:01:43.764Z,4.30
2022-08-23T02:04:11.157Z,4.75
2022-08-23T02:06:38.906Z,4.22
2022-08-23T02:09:17.122Z,4.25
2022-08-23T02:11:46.367Z,4.45
2022-08-23T02:14:18.614Z,4.70
2022-08-23T02:17:03.503Z,4.07
2022-08-23T02:19:34.781Z,3.70
2022-08-23T02:22:04.403Z,4.45
2022-08-23T02:24:32.501Z,4.03
2022-08-23T02:27:03.865Z,4.57
2022-08-23T02:29:39.335Z,3.97
2022-08-23T02:32:09.664Z,3.90
2022-08-23T02:34:37.445Z,3.88
2022-08-23T02:37:07.385Z,4.03
2022-08-23T02:39:35.173Z,4.13
2022-08-23T02:42:03.242Z,3.92
2022-08-23T02:44:35.522Z,4.00
2022-08-23T02:47:03.470Z,4.18
2022-08-23T02:49:30.980Z,3.72
2022-08-23T02:51:58.295Z,4.25
2022-08-23T02:54:26.703Z,4.00
2022-08-23T02:56:54.299Z,3.78
2022-08-23T02:59:21.666Z,3.92
2022-08-23T03:01:49.040Z,3.25
2022-08-23T03:04:23.898Z,3.78
2022-08-23T03:06:51.610Z,3.67
2022-08-23T03:09:19.536Z,4.05
2022-08-23T03:11:48.150Z,3.88
2022-08-23T03:14:16.283Z,3.38
2022-08-23T03:16:44.465Z,3.88
2022-08-23T03:19:12.983Z,3.88
2022-08-23T03:21:40.418Z,3.65
2022-08-23T03:24:11.432Z,3.22
2022-08-23T03:26:44.507Z,3.92
2022-08-23T03:29:12.599Z,3.92
2022-08-23T03:31:57.744Z,3.88
2022-08-23T03:34:28.190Z,4.00
2022-08-23T03:36:56.232Z,3.83
2022-08-23T03:39:23.884Z,3.67
2022-08-23T03:41:51.512Z,3.80
2022-08-23T03:44:19.420Z,3.65
2022-08-23T03:46:46.979Z,3.58
2022-08-23T03:49:14.289Z,4.00
2022-08-23T03:51:50.934Z,4.32
2022-08-23T03:54:18.373Z,3.75
2022-08-23T03:57:00.425Z,3.97
2022-08-23T03:59:32.586Z,3.90
2022-08-23T04:02:00.781Z,3.35
2022-08-23T04:04:29.929Z,4.05
2022-08-23T04:07:20.781Z,4.00
2022-08-23T04:09:54.836Z,4.40
2022-08-23T04:12:23.836Z,4.53
2022-08-23T04:14:51.308Z,4.45
2022-08-23T04:17:20.976Z,3.72
2022-08-23T04:19:49.590Z,4.28
2022-08-23T04:22:20.530Z,4.25
2022-08-23T04:24:48.042Z,4.22
2022-08-23T04:27:17.035Z,3.97
2022-08-23T04:29:45.743Z,3.95
2022-08-23T04:32:14.705Z,3.65
2022-08-23T04:34:55.679Z,4.18
2022-08-23T04:37:23.314Z,4.25
2022-08-23T04:40:09.404Z,3.95
2022-08-23T04:42:42.140Z,3.92
2022-08-23T04:45:09.610Z,3.75
2022-08-23T04:47:41.357Z,4.38
2022-08-23T04:50:10.070Z,4.55
2022-08-23T04:52:51.876Z,4.57
2022-08-23T04:55:19.236Z,3.72
2022-08-23T04:57:52.215Z,4.80
2022-08-23T05:00:22.834Z,4.80
2022-08-23T05:02:56.424Z,5.00
2022-08-23T05:05:24.605Z,5.13
2022-08-23T05:07:51.857Z,4.40
2022-08-23T05:10:19.349Z,3.88
2022-08-23T05:12:50.881Z,4.20
2022-08-23T05:15:20.866Z,4.50
2022-08-23T05:17:54.010Z,4.65
2022-08-23T05:20:21.848Z,4.10
2022-08-23T05:22:50.481Z,4.43
2022-08-23T05:25:58.081Z,4.68
2022-08-23T05:28:32.700Z,4.22
2022-08-23T05:31:06.864Z,4.03
2022-08-23T05:33:52.951Z,4.65
2022-08-23T05:36:38.770Z,4.05
2022-08-23T05:39:24.151Z,5.00
2022-08-23T05:42:00.080Z,4.38
2022-08-23T05:44:27.362Z,3.92
2022-08-23T05:46:54.946Z,4.20
2022-08-23T05:49:31.645Z,4.35
2022-08-23T05:51:59.703Z,4.28
2022-08-23T05:54:31.395Z,3.95
2022-08-23T05:57:38.282Z,4.55
2022-08-23T06:00:09.862Z,5.30
2022-08-23T06:02:47.059Z,5.18
2022-08-23T06:05:16.073Z,4.20
2022-08-23T06:07:45.023Z,4.70
2022-08-23T06:10:16.343Z,4.85
2022-08-23T06:12:48.712Z,4.65
2022-08-23T06:15:16.323Z,4.72
2022-08-23T06:17:43.685Z,4.65
2022-08-23T06:20:11.293Z,4.70
2022-08-23T06:22:56.399Z,4.20
2022-08-23T06:25:23.651Z,3.97
2022-08-23T06:28:05.120Z,4.25
2022-08-23T06:30:34.485Z,3.80
2022-08-23T06:33:03.475Z,3.53
2022-08-23T06:35:38.898Z,3.72
2022-08-23T06:38:12.894Z,3.97
2022-08-23T06:41:10.472Z,3.70
2022-08-23T06:44:10.393Z,3.97
2022-08-23T06:47:03.711Z,3.80
2022-08-23T06:49:31.038Z,3.80
2022-08-23T06:52:00.208Z,4.07
2022-08-23T06:54:57.905Z,3.63
2022-08-23T06:57:54.281Z,3.33
2022-08-23T07:00:54.238Z,2.92
2022-08-23T07:03:29.997Z,3.83
2022-08-23T07:06:27.174Z,3.75
2022-08-23T07:08:55.204Z,3.67
2022-08-23T07:11:23.314Z,3.60
2022-08-23T07:13:52.123Z,3.40
2022-08-23T07:16:19.986Z,3.58
2022-08-23T07:18:49.594Z,3.33
2022-08-23T07:21:19.558Z,3.38
2022-08-23T07:23:47.280Z,3.05
2022-08-23T07:26:17.101Z,3.25
2022-08-23T07:28:45.178Z,3.53
2022-08-23T07:31:18.150Z,3.47
2022-08-23T07:33:47.807Z,3.10
2022-08-23T07:36:22.560Z,3.38
2022-08-23T07:38:51.633Z,3.00
2022-08-23T07:41:24.129Z,3.10
2022-08-23T07:43:51.940Z,3.35
2022-08-23T07:46:19.987Z,3.72
2022-08-23T07:48:54.225Z,3.42
2022-08-23T07:51:32.547Z,3.63
2022-08-23T07:54:05.596Z,3.47
2022-08-23T07:56:35.387Z,3.67
2022-08-23T07:59:15.839Z,3.40
2022-08-23T08:02:01.402Z,3.05
2022-08-23T08:04:29.121Z,3.35
2022-08-23T08:07:18.286Z,3.30
2022-08-23T08:09:48.280Z,3.63
2022-08-23T08:12:17.730Z,3.97
2022-08-23T08:14:48.390Z,3.95
2022-08-23T08:17:18.392Z,3.60
2022-08-23T08:20:06.395Z,4.32
2022-08-23T08:22:58.408Z,3.83
2022-08-23T08:25:27.601Z,3.42
2022-08-23T08:27:58.731Z,4.68
2022-08-23T08:30:26.237Z,3.83
2022-08-23T08:32:53.843Z,4.35
2022-08-23T08:35:22.597Z,5.30
2022-08-23T08:37:50.064Z,4.20
2022-08-23T08:40:25.505Z,4.43
2022-08-23T08:43:17.530Z,4.20
2022-08-23T08:46:04.082Z,4.15
2022-08-23T08:48:44.668Z,3.90
2022-08-23T08:51:30.375Z,4.45
2022-08-23T08:53:59.338Z,3.85
2022-08-23T08:56:37.938Z,4.10
2022-08-23T08:59:26.883Z,4.05
2022-08-23T09:01:54.487Z,3.90
2022-08-23T09:04:29.951Z,3.72
2022-08-23T09:07:18.989Z,3.75
2022-08-23T09:09:58.190Z,3.50
2022-08-23T09:12:49.428Z,3.33
2022-08-23T09:15:30.934Z,3.28
2022-08-23T09:18:08.048Z,4.00
2022-08-23T09:20:36.132Z,3.08
2022-08-23T09:23:25.404Z,3.67
2022-08-23T09:26:01.230Z,2.88
2022-08-23T09:28:36.799Z,3.08
2022-08-23T09:31:08.394Z,3.13
2022-08-23T09:33:43.251Z,3.78
2022-08-23T09:36:37.432Z,3.08
2022-08-23T09:39:09.214Z,3.55
2022-08-23T09:41:43.515Z,3.97
2022-08-23T09:44:16.185Z,3.80
2022-08-23T09:46:44.328Z,3.20
2022-08-23T09:49:24.836Z,3.60
2022-08-23T09:51:58.615Z,3.92
2022-08-23T09:54:36.297Z,3.28
2022-08-23T09:57:10.804Z,4.15
2022-08-23T09:59:38.272Z,4.25
2022-08-23T10:02:24.008Z,4.07
2022-08-23T10:05:01.875Z,4.22
2022-08-23T10:07:43.874Z,3.58
2022-08-23T10:10:33.292Z,3.92
2022-08-23T10:13:05.974Z,3.42
2022-08-23T10:16:07.882Z,7.93
2022-08-23T10:18:40.740Z,6.25
2022-08-23T10:21:24.237Z,5.05
2022-08-23T10:24:11.927Z,5.32
2022-08-23T10:26:54.907Z,4.72
2022-08-23T10:29:38.084Z,4.03
2022-08-23T10:32:36.636Z,3.05
2022-08-23T10:35:29.938Z,3.80
2022-08-23T10:38:09.415Z,4.13
2022-08-23T10:40:52.300Z,3.47
2022-08-23T10:43:42.165Z,4.30
2022-08-23T10:46:10.416Z,3.35
2022-08-23T10:48:53.813Z,3.60
2022-08-23T10:51:31.647Z,3.47
2022-08-23T10:54:24.289Z,3.67
2022-08-23T10:56:57.136Z,2.50
2022-08-23T10:59:26.422Z,3.38
2022-08-23T11:02:04.800Z,3.60
2022-08-23T11:04:51.464Z,2.70
2022-08-23T11:07:38.857Z,2.78
2022-08-23T11:10:25.285Z,2.92
2022-08-23T11:12:57.251Z,2.90
2022-08-23T11:15:36.950Z,2.95
2022-08-23T11:18:40.880Z,2.75
2022-08-23T11:21:17.823Z,2.70
2022-08-23T11:23:58.902Z,2.55
2022-08-23T11:26:28.341Z,2.65
2022-08-23T11:29:07.657Z,2.42
2022-08-23T11:31:58.381Z,2.47
2022-08-23T11:34:29.991Z,2.38
2022-08-23T11:37:20.120Z,2.20
2022-08-23T11:39:58.167Z,2.28
2022-08-23T11:42:40.206Z,2.53
2022-08-23T11:45:31.340Z,2.17
2022-08-23T11:48:16.751Z,2.10
2022-08-23T11:51:15.207Z,2.30
2022-08-23T11:54:00.807Z,2.22
2022-08-23T11:56:46.833Z,2.42
2022-08-23T11:59:41.847Z,2.20
2022-08-23T12:02:40.521Z,2.20
2022-08-23T12:05:22.726Z,2.90
2022-08-23T12:08:02.700Z,2.38
2022-08-23T12:10:42.115Z,1.88
2022-08-23T12:13:18.692Z,2.17
2022-08-23T12:16:26.981Z,2.25
2022-08-23T12:19:01.009Z,2.60
2022-08-23T12:21:50.523Z,1.95
2022-08-23T12:24:32.693Z,2.00
2022-08-23T12:27:28.483Z,1.83
2022-08-23T12:30:02.837Z,2.00
2022-08-23T12:32:40.018Z,2.05
2022-08-23T12:35:30.185Z,2.30
2022-08-23T12:38:00.417Z,1.88
2022-08-23T12:40:44.763Z,2.53
2022-08-23T12:43:23.050Z,2.13
2022-08-23T12:45:59.663Z,2.35
2022-08-23T12:48:30.011Z,2.33
2022-08-23T12:51:00.403Z,2.63
2022-08-23T12:53:34.388Z,2.47
2022-08-23T12:56:06.209Z,2.17
2022-08-23T12:58:36.721Z,2.50
2022-08-23T13:01:18.238Z,2.42
2022-08-23T13:03:50.657Z,2.40
2022-08-23T13:06:26.387Z,2.45
2022-08-23T13:09:01.683Z,2.45
2022-08-23T13:11:32.147Z,2.38
2022-08-23T13:14:01.091Z,2.30
2022-08-23T13:16:33.146Z,2.47
2022-08-23T13:19:15.276Z,2.28
2022-08-23T13:21:42.561Z,1.75
2022-08-23T13:24:38.284Z,2.08
2022-08-23T13:27:20.592Z,2.25
2022-08-23T13:29:56.951Z,2.50
2022-08-23T13:32:41.772Z,2.38
2022-08-23T13:35:49.768Z,2.20
2022-08-23T13:38:24.722Z,2.95
2022-08-23T13:41:02.851Z,2.30
2022-08-23T13:43:32.966Z,2.50
2022-08-23T13:46:19.326Z,2.70
2022-08-23T13:49:00.834Z,2.15
2022-08-23T13:51:32.644Z,2.42
2022-08-23T13:54:03.691Z,2.80
2022-08-23T13:56:37.959Z,2.05
2022-08-23T13:59:31.203Z,2.65
2022-08-23T14:02:01.619Z,2.20
2022-08-23T14:04:29.240Z,2.63
2022-08-23T14:06:56.543Z,2.20
2022-08-23T14:09:23.896Z,2.60
2022-08-23T14:11:55.149Z,2.30
2022-08-23T14:14:22.455Z,3.35
2022-08-23T14:16:50.027Z,2.03
2022-08-23T14:19:55.345Z,2.63
2022-08-23T14:22:05.676Z,2.35
2022-08-23T14:24:33.171Z,2.00
2022-08-23T14:27:01.259Z,1.65
2022-08-23T14:29:28.549Z,1.92
2022-08-23T14:31:58.733Z,1.42
2022-08-23T14:34:27.744Z,1.55
2022-08-23T14:39:43.569Z,1.63
2022-08-23T14:42:20.973Z,1.77
2022-08-23T14:44:48.280Z,2.17
2022-08-23T14:47:16.522Z,1.88
2022-08-23T14:49:44.314Z,2.45
2022-08-23T14:52:13.405Z,2.20
2022-08-23T14:54:41.120Z,2.15
2022-08-23T14:57:08.514Z,2.00
2022-08-23T14:59:35.867Z,1.92
2022-08-23T15:02:05.096Z,1.88
2022-08-23T15:04:34.363Z,2.10
2022-08-23T15:07:20.486Z,2.65
2022-08-23T15:09:49.240Z,2.08
2022-08-23T15:15:13.854Z,2.00
2022-08-23T15:17:52.593Z,2.30
2022-08-23T15:20:28.191Z,1.92
2022-08-23T15:22:56.218Z,1.77
2022-08-23T15:25:29.400Z,2.17
2022-08-23T15:27:57.128Z,2.17
2022-08-23T15:30:25.163Z,2.65
2022-08-23T15:33:00.247Z,1.70
2022-08-23T15:35:28.689Z,2.20
2022-08-23T15:37:57.573Z,2.25
2022-08-23T15:40:26.248Z,1.60
2022-08-23T15:42:54.245Z,1.52
2022-08-23T15:45:22.092Z,1.63
2022-08-23T15:47:55.320Z,2.53
2022-08-23T15:50:27.332Z,2.10
2022-08-23T15:52:55.307Z,1.90
2022-08-23T15:55:23.924Z,2.72
2022-08-23T15:57:53.801Z,1.42
2022-08-23T16:00:26.262Z,1.98
2022-08-23T16:03:19.557Z,1.58
2022-08-23T16:05:45.098Z,1.63
2022-08-23T16:08:34.850Z,2.17
2022-08-23T16:11:05.242Z,1.95
2022-08-23T16:13:32.720Z,1.35
2022-08-23T16:16:00.001Z,2.70
2022-08-23T16:18:27.769Z,1.88
2022-08-23T16:20:55.135Z,2.05
2022-08-23T16:23:23.160Z,2.00
2022-08-23T16:25:50.580Z,1.70
2022-08-23T16:28:17.931Z,1.38
2022-08-23T16:30:45.241Z,1.67
2022-08-23T16:33:12.640Z,2.22
2022-08-23T16:35:40.012Z,2.50
2022-08-23T16:38:07.467Z,8.63
2022-08-23T16:40:34.862Z,2.35
2022-08-23T16:43:02.255Z,1.88
2022-08-23T16:45:29.650Z,1.55
2022-08-23T16:47:57.031Z,1.65
2022-08-23T16:50:24.539Z,1.63
2022-08-23T16:52:52.183Z,1.70
2022-08-23T16:55:19.751Z,1.92
2022-08-23T16:57:47.003Z,1.67
2022-08-23T17:00:15.497Z,1.77
2022-08-23T17:02:43.950Z,1.90
2022-08-23T17:05:16.014Z,1.70
2022-08-23T17:07:43.669Z,6.80
2022-08-23T17:10:12.612Z,2.63
2022-08-23T17:12:46.894Z,1.88
2022-08-23T17:15:20.461Z,1.70
2022-08-23T17:17:48.736Z,1.80
2022-08-23T17:20:18.275Z,1.77
2022-08-23T17:22:47.142Z,2.40
2022-08-23T17:25:16.239Z,2.00
2022-08-23T17:27:46.331Z,2.22
2022-08-23T17:30:17.006Z,1.80
2022-08-23T17:32:47.501Z,2.03
2022-08-23T17:35:18.235Z,1.40
2022-08-23T17:37:46.648Z,2.22
2022-08-23T17:40:21.161Z,1.92
2022-08-23T17:42:49.743Z,1.80
2022-08-23T17:45:17.828Z,1.60
2022-08-23T17:47:45.448Z,1.77
2022-08-23T17:50:12.938Z,1.50
2022-08-23T17:52:41.241Z,1.65
2022-08-23T17:55:10.736Z,1.35
2022-08-23T17:57:39.382Z,1.40
2022-08-23T18:00:08.696Z,1.52
2022-08-23T18:02:37.983Z,1.30
2022-08-23T18:05:07.104Z,2.25
2022-08-23T18:07:34.764Z,2.53
2022-08-23T18:10:02.245Z,2.05
2022-08-23T18:12:29.671Z,1.90
2022-08-23T18:14:57.161Z,1.98
2022-08-23T18:17:24.550Z,1.95
2022-08-23T18:19:52.692Z,2.83
2022-08-23T18:22:20.310Z,2.35
2022-08-23T18:24:47.594Z,12.10
2022-08-23T18:27:33.792Z,7.40
2022-08-23T18:30:01.090Z,4.10
2022-08-23T18:32:28.543Z,3.25
2022-08-23T18:34:56.137Z,3.75
2022-08-23T18:37:23.448Z,4.22
2022-08-23T18:39:51.019Z,9.48
2022-08-23T18:42:18.736Z,11.25
2022-08-23T18:44:46.216Z,5.70
2022-08-23T18:47:13.663Z,8.77
2022-08-23T18:49:41.561Z,8.02
2022-08-23T18:52:09.272Z,9.70
2022-08-23T18:54:37.191Z,13.75
2022-08-23T18:57:04.969Z,10.70
2022-08-23T18:59:32.681Z,10.35
2022-08-23T19:02:00.134Z,7.50
2022-08-23T19:04:28.092Z,8.88
2022-08-23T19:06:55.763Z,13.00
2022-08-23T19:09:23.068Z,14.63
2022-08-23T19:11:50.612Z,5.80
2022-08-23T19:14:19.264Z,9.80
2022-08-23T19:16:48.447Z,11.02
2022-08-23T19:19:18.606Z,11.73
2022-08-23T19:21:46.148Z,12.20
2022-08-23T19:24:13.580Z,9.75
2022-08-23T19:26:44.350Z,15.10
2022-08-23T19:29:11.629Z,20.30
2022-08-23T19:31:43.249Z,13.35
2022-08-23T19:34:11.456Z,10.90
2022-08-23T19:36:48.304Z,9.43
2022-08-23T19:39:19.902Z,8.13
2022-08-23T19:41:48.558Z,29.00
2022-08-23T19:44:17.757Z,38.88
2022-08-23T19:46:45.571Z,16.83
2022-08-23T19:49:14.681Z,10.45
2022-08-23T19:51:42.496Z,7.82
2022-08-23T19:54:12.361Z,4.97
2022-08-23T19:56:49.093Z,6.20
2022-08-23T19:59:20.584Z,7.45
2022-08-23T20:01:49.609Z,6.35
2022-08-23T20:04:18.403Z,5.75
2022-08-23T20:06:49.416Z,4.65
2022-08-23T20:09:17.846Z,4.18
2022-08-23T20:11:45.165Z,5.85
2022-08-23T20:14:12.509Z,7.40
2022-08-23T20:16:42.039Z,52.60
2022-08-23T20:19:10.848Z,24.95
2022-08-23T20:21:39.800Z,12.25
2022-08-23T20:24:09.789Z,31.33
2022-08-23T20:26:41.399Z,15.98
2022-08-23T20:29:20.657Z,9.07
2022-08-23T20:31:55.123Z,8.77
2022-08-23T20:34:23.092Z,7.53
2022-08-23T20:36:55.814Z,8.15
2022-08-23T20:39:24.495Z,6.90
2022-08-23T20:41:53.577Z,6.95
2022-08-23T20:44:21.976Z,7.72
2022-08-23T20:46:53.719Z,8.07
2022-08-23T20:49:22.632Z,7.60
2022-08-23T20:51:50.349Z,6.05
2022-08-23T20:54:18.062Z,4.85
2022-08-23T20:56:45.871Z,5.05
2022-08-23T20:59:14.679Z,4.50
2022-08-23T21:01:42.074Z,5.15
2022-08-23T21:04:09.383Z,4.53
2022-08-23T21:06:49.114Z,5.00
2022-08-23T21:09:19.672Z,4.47
2022-08-23T21:11:48.841Z,4.10
2022-08-23T21:14:18.528Z,4.38
2022-08-23T21:16:47.235Z,5.90
2022-08-23T21:19:15.211Z,5.70
2022-08-23T21:21:42.783Z,5.22
2022-08-23T21:24:11.304Z,5.55
2022-08-23T21:26:39.299Z,4.75
2022-08-23T21:29:08.096Z,4.40
2022-08-23T21:31:36.378Z,4.38
2022-08-23T21:34:04.002Z,4.22
2022-08-23T21:36:31.433Z,4.40
2022-08-23T21:38:58.696Z,4.97
2022-08-23T21:41:41.909Z,10.63
2022-08-23T21:44:15.600Z,19.38
2022-08-23T21:46:43.743Z,17.02
2022-08-23T21:49:12.485Z,9.90
2022-08-23T21:51:41.190Z,6.93
2022-08-23T21:54:09.615Z,5.75
2022-08-23T21:56:37.932Z,5.82
2022-08-23T21:59:07.727Z,3.85
2022-08-23T22:01:36.204Z,4.60
2022-08-23T22:04:06.119Z,5.03
2022-08-23T22:06:35.106Z,5.05
2022-08-23T22:09:05.033Z,4.55
2022-08-23T22:11:32.413Z,4.80
2022-08-23T22:14:00.294Z,4.80
2022-08-23T22:16:27.602Z,4.50
2022-08-23T22:18:54.846Z,4.82
2022-08-23T22:21:22.626Z,4.60
2022-08-23T22:23:50.448Z,5.38
2022-08-23T22:26:17.939Z,5.10
2022-08-23T22:28:45.144Z,5.47
2022-08-23T22:31:15.086Z,4.93
2022-08-23T22:33:43.903Z,5.88
2022-08-23T22:36:14.403Z,5.65
2022-08-23T22:38:42.763Z,5.82
2022-08-23T22:41:10.917Z,5.38
2022-08-23T22:43:38.223Z,6.15
2022-08-23T22:46:05.890Z,5.50
2022-08-23T22:48:35.048Z,5.40
2022-08-23T22:51:09.222Z,5.40
2022-08-23T22:53:38.799Z,5.82
2022-08-23T22:56:06.833Z,5.20
2022-08-23T22:58:34.387Z,4.63
2022-08-23T23:01:03.706Z,4.85
2022-08-23T23:03:34.749Z,4.45
2022-08-23T23:06:02.187Z,4.93
2022-08-23T23:08:29.536Z,4.93
2022-08-23T23:11:06.878Z,4.75
2022-08-23T23:13:34.647Z,4.18
2022-08-23T23:16:07.339Z,4.60
2022-08-23T23:18:35.131Z,4.60
2022-08-23T23:21:04.914Z,5.07
2022-08-23T23:23:34.443Z,5.07
2022-08-23T23:26:03.473Z,4.80
2022-08-23T23:28:30.865Z,5.18
2022-08-23T23:30:59.372Z,4.82
2022-08-23T23:33:27.434Z,4.80
2022-08-23T23:35:54.752Z,4.65
2022-08-23T23:38:22.129Z,4.53
2022-08-23T23:40:49.420Z,5.13
2022-08-23T23:43:16.743Z,5.15
2022-08-23T23:45:44.443Z,4.93
2022-08-23T23:48:11.719Z,5.32
2022-08-23T23:50:45.258Z,4.65
2022-08-23T23:53:15.236Z,3.90
2022-08-23T23:55:43.663Z,3.70
2022-08-23T23:58:10.923Z,3.47
